Training Ship Golden Bear — NMRY — position and weather

sailwx.info

Track history (hours):
 
Tides and Currents Weather Stations Pressure Air Temp Water Temp Dewpoint Dewpoint Depression Visibility Wind Speed Wind Dir Waves Ship Positions

Training Ship Golden Bear (United States)

Training ship for California Maritime Academy. Ex USNS Maury T-AGS-39. Sister ship of training ship "State of Maine". See also http://www.csum.edu/MarinePrograms/tsgb.asp.

Ship's website: http://cma-virtualftv.csum.edu/wordpress/

Last reported at 2014-Oct-16 13:21 UTC. Time now 2014-Oct-25 07:44 UTC.
Position N 30°21' W 088°31'.
Warning: this ship's position is 8 days out of date.

Type: Ship. MMSI: 367978000.

Date/timePositionNaut miles runAvg speedWind from/ knotsBaromVisibWave heightAir tempDewpointWater temp
2014-Oct-16 13:21N 30°21' W 088°31'  
2014-Oct-13 01:29N 38°04' W 122°14'3 2.9
2014-Oct-13 00:33N 38°03' W 122°17'1111.3
2014-Oct-12 23:34N 37°55' W 122°27'7 6.2
2014-Oct-12 22:29N 37°49' W 122°23'0 0.0
2014-Oct-12 21:31N 37°49' W 122°23'0 0.0
2014-Oct-12 20:32N 37°49' W 122°23'0 0.0
2014-Oct-12 19:31N 37°49' W 122°23'3 3.5
2014-Oct-12 18:33N 37°52' W 122°25'1212.0
2014-Oct-12 17:33N 38°03' W 122°19'4 1.9
2014-Oct-12 15:28N 38°04' W 122°14'0 0.0
2014-Oct-12 11:22N 38°04' W 122°14'0 0.0
2014-Oct-12 09:22N 38°04' W 122°14'0 0.0
2014-Oct-12 04:22N 38°04' W 122°14'0 0.0
2014-Oct-12 02:16N 38°04' W 122°14'0 0.0
2014-Oct-12 01:28N 38°04' W 122°14'0 0.0
2014-Oct-11 18:16N 38°04' W 122°14'0 0.0
2014-Oct-11 17:28N 38°04' W 122°14'0 0.0
2014-Oct-11 05:04N 38°04' W 122°14'0 0.0
2014-Oct-10 03:16N 38°04' W 122°14'0 0.0
2014-Oct-09 16:33N 38°04' W 122°14'0 0.0
2014-Oct-09 14:21N 38°04' W 122°14'0 0.0
2014-Oct-09 13:28N 38°04' W 122°14'0 0.0
2014-Oct-09 06:03N 38°04' W 122°14'  
2014-Oct-06 16:11N 38°04' W 122°14'  
Track history (hours):
 
Tides and Currents Weather Stations Pressure Air Temp Water Temp Dewpoint Dewpoint Depression Visibility Wind Speed Wind Dir Waves Ship Positions

Training Ship Golden Bear (United States)

Training ship for California Maritime Academy. Ex USNS Maury T-AGS-39. Sister ship of training ship "State of Maine". See also http://www.csum.edu/MarinePrograms/tsgb.asp.

Ship's website: http://cma-virtualftv.csum.edu/wordpress/

Last reported at 2014-Oct-16 13:21 UTC. Time now 2014-Oct-25 07:44 UTC.
Position N 30°21' W 088°31'.
Warning: this ship's position is 8 days out of date.

Type: Ship. MMSI: 367978000.

Date/timePositionNaut miles runAvg speedWind from/ knotsBaromVisibWave heightAir tempDewpointWater temp
2014-Oct-16 13:21N 30°21' W 088°31'  
2014-Oct-13 01:29N 38°04' W 122°14'3 2.9
2014-Oct-13 00:33N 38°03' W 122°17'1111.3
2014-Oct-12 23:34N 37°55' W 122°27'7 6.2
2014-Oct-12 22:29N 37°49' W 122°23'0 0.0
2014-Oct-12 21:31N 37°49' W 122°23'0 0.0
2014-Oct-12 20:32N 37°49' W 122°23'0 0.0
2014-Oct-12 19:31N 37°49' W 122°23'3 3.5
2014-Oct-12 18:33N 37°52' W 122°25'1212.0
2014-Oct-12 17:33N 38°03' W 122°19'4 1.9
2014-Oct-12 15:28N 38°04' W 122°14'0 0.0
2014-Oct-12 11:22N 38°04' W 122°14'0 0.0
2014-Oct-12 09:22N 38°04' W 122°14'0 0.0
2014-Oct-12 04:22N 38°04' W 122°14'0 0.0
2014-Oct-12 02:16N 38°04' W 122°14'0 0.0
2014-Oct-12 01:28N 38°04' W 122°14'0 0.0
2014-Oct-11 18:16N 38°04' W 122°14'0 0.0
2014-Oct-11 17:28N 38°04' W 122°14'0 0.0
2014-Oct-11 05:04N 38°04' W 122°14'0 0.0
2014-Oct-10 03:16N 38°04' W 122°14'0 0.0
2014-Oct-09 16:33N 38°04' W 122°14'0 0.0
2014-Oct-09 14:21N 38°04' W 122°14'0 0.0
2014-Oct-09 13:28N 38°04' W 122°14'0 0.0
2014-Oct-09 06:03N 38°04' W 122°14'  
2014-Oct-06 16:11N 38°04' W 122°14'  

Dump ship's entire track history